首页
METAR-TAF:

METAR-TAF

机场 :

斯塔夫罗波尔, 俄罗斯

纬度: 45-20N, 经度: 042-00E, 海拔: 453米

当前天气观测

该预报发布于28分钟前的21:30 UTC
风速14节,风向东转东南
温度 4°C
湿度 65%
气压 1008 hPa
能见度10公里或以上
1500米以下无云,无积雨云

METAR: URMT 282130Z 11007MPS CAVOK 04/M02 Q1008 R07/120060 NOSIG RMK QFE716

时间: 01:58 (21:58 UTC)

预报

该预报发布于1小时和58分钟前的20:00 UTC
预报有效从28日的 21点(UTC)到 29日的 06点(UTC)
风速12节,风向东转东南,有时为21节阵风
能见度10公里或以上
散云层高于2000英尺
短暂存在
从 28日的 21点(UTC)到 28日的 24点(UTC)
风速17节,风向东转东南,有时为27节阵风

TAF: URMT 282000Z 2821/2906 11006G11MPS 9999 SCT020 TEMPO 2821/2824 11009G14MPS

超过4000个机场的气象观测和天气预报(METAR&TAF报告)。

可查询的气象台以黄色和红色小点在地图上表示。

将鼠标移到小点上方,可查看气象台名称。

然后点击查看天气观测和预报。

如需切换地图:点击带黑十字的绿色按钮放大地图;点击带横线的绿色按钮缩小地图;或者点击绿色箭头查看邻近地区的地图。


METAR-TAF: